createdAt,value
2019-04-27T00:00:35.339Z,0.47
2019-04-27T00:03:08.408Z,0.30
2019-04-27T00:05:44.871Z,0.40
2019-04-27T00:08:28.535Z,0.30
2019-04-27T00:11:08.486Z,0.30
2019-04-27T00:13:40.421Z,0.35
2019-04-27T00:16:11.062Z,0.50
2019-04-27T00:18:56.339Z,0.30
2019-04-27T00:21:29.026Z,0.40
2019-04-27T00:23:57.778Z,0.40
2019-04-27T00:26:26.509Z,0.40
2019-04-27T00:28:55.193Z,0.40
2019-04-27T00:31:23.882Z,0.40
2019-04-27T00:33:53.585Z,0.40
2019-04-27T00:36:23.985Z,0.30
2019-04-27T00:39:00.420Z,0.33
2019-04-27T00:41:29.171Z,0.40
2019-04-27T00:43:57.860Z,0.40
2019-04-27T00:46:26.647Z,0.30
2019-04-27T00:48:55.330Z,0.30
2019-04-27T00:51:24.010Z,0.30
2019-04-27T00:53:53.731Z,0.35
2019-04-27T00:56:30.542Z,0.30
2019-04-27T00:59:04.108Z,0.50
2019-04-27T01:01:43.659Z,0.40
2019-04-27T01:04:14.067Z,0.35
2019-04-27T01:06:43.764Z,0.40
2019-04-27T01:09:14.175Z,0.40
2019-04-27T01:11:43.422Z,0.30
2019-04-27T01:14:12.882Z,0.30
2019-04-27T01:16:41.756Z,0.30
2019-04-27T01:19:10.767Z,0.60
2019-04-27T01:21:39.698Z,0.30
2019-04-27T01:24:08.982Z,0.30
2019-04-27T01:26:39.390Z,0.50
2019-04-27T01:29:10.315Z,0.40
2019-04-27T01:31:39.609Z,0.40
2019-04-27T01:34:09.273Z,0.30
2019-04-27T01:36:39.255Z,0.40
2019-04-27T01:39:10.399Z,0.40
2019-04-27T01:41:39.166Z,0.40
2019-04-27T01:44:09.208Z,0.30
2019-04-27T01:46:39.631Z,0.40
2019-04-27T01:49:09.175Z,0.37
2019-04-27T01:51:39.156Z,0.33
2019-04-27T01:54:10.353Z,0.30
2019-04-27T01:56:39.529Z,0.30
2019-04-27T01:59:08.725Z,0.37
2019-04-27T02:01:55.266Z,0.40
2019-04-27T02:04:25.593Z,0.40
2019-04-27T02:06:55.919Z,0.40
2019-04-27T02:09:25.200Z,0.30
2019-04-27T02:11:53.947Z,0.30
2019-04-27T02:14:22.718Z,0.30
2019-04-27T02:16:51.431Z,0.40
2019-04-27T02:19:20.107Z,0.30
2019-04-27T02:21:49.410Z,0.50
2019-04-27T02:24:19.362Z,0.33
2019-04-27T02:26:49.627Z,0.50
2019-04-27T02:29:20.062Z,0.50
2019-04-27T02:31:51.166Z,0.40
2019-04-27T02:34:24.448Z,0.37
2019-04-27T02:36:53.129Z,0.30
2019-04-27T02:39:21.851Z,0.45
2019-04-27T02:41:51.875Z,0.30
2019-04-27T02:44:25.137Z,0.50
2019-04-27T02:46:53.859Z,0.40
2019-04-27T02:49:22.565Z,0.40
2019-04-27T02:51:59.531Z,0.40
2019-04-27T02:54:29.843Z,0.30
2019-04-27T02:56:59.339Z,0.60
2019-04-27T02:59:30.251Z,0.47
2019-04-27T03:02:05.963Z,0.30
2019-04-27T03:04:34.681Z,0.40
2019-04-27T03:07:03.364Z,0.40
2019-04-27T03:09:32.053Z,0.53
2019-04-27T03:12:02.242Z,0.40
2019-04-27T03:14:40.420Z,0.37
2019-04-27T03:17:13.324Z,0.30
2019-04-27T03:20:00.219Z,0.40
2019-04-27T03:22:33.393Z,0.40
2019-04-27T03:25:03.718Z,0.40
2019-04-27T03:27:34.030Z,0.45
2019-04-27T03:30:02.819Z,0.40
2019-04-27T03:32:31.955Z,0.30
2019-04-27T03:35:02.754Z,0.40
2019-04-27T03:37:31.246Z,0.55
2019-04-27T03:40:00.266Z,0.42
2019-04-27T03:42:29.378Z,0.40
2019-04-27T03:45:00.373Z,0.40
2019-04-27T03:47:30.720Z,0.40
2019-04-27T03:50:00.126Z,0.50
2019-04-27T03:52:36.678Z,0.45
2019-04-27T03:55:07.006Z,0.47
2019-04-27T03:57:40.483Z,0.80
2019-04-27T04:00:22.785Z,0.60
2019-04-27T04:02:51.466Z,0.70
2019-04-27T04:05:20.517Z,0.60
2019-04-27T04:07:50.301Z,0.50
2019-04-27T04:10:20.093Z,0.45
2019-04-27T04:12:50.499Z,0.40
2019-04-27T04:15:21.208Z,0.37
2019-04-27T04:17:49.888Z,0.50
2019-04-27T04:20:20.136Z,0.40
2019-04-27T04:22:51.454Z,0.40
2019-04-27T04:25:20.050Z,0.40
2019-04-27T04:27:50.638Z,0.40
2019-04-27T04:30:20.023Z,0.30
2019-04-27T04:32:49.822Z,0.30
2019-04-27T04:35:21.731Z,0.45
2019-04-27T04:37:52.786Z,0.40
2019-04-27T04:40:23.243Z,0.40
2019-04-27T04:43:02.600Z,0.33
2019-04-27T04:45:31.516Z,0.40
2019-04-27T04:48:01.866Z,0.50
2019-04-27T04:50:30.582Z,0.30
2019-04-27T04:52:59.949Z,0.35
2019-04-27T04:55:30.559Z,0.40
2019-04-27T04:57:59.210Z,0.33
2019-04-27T05:00:29.841Z,0.37
2019-04-27T05:02:59.513Z,0.40
2019-04-27T05:05:29.293Z,0.40
2019-04-27T05:07:58.795Z,0.40
2019-04-27T05:10:28.875Z,0.50
2019-04-27T05:12:59.162Z,0.40
2019-04-27T05:15:29.329Z,0.35
2019-04-27T05:17:59.202Z,0.40
2019-04-27T05:20:46.287Z,0.40
2019-04-27T05:23:15.004Z,0.40
2019-04-27T05:25:43.700Z,0.40
2019-04-27T05:28:12.382Z,0.40
2019-04-27T05:30:41.094Z,0.40
2019-04-27T05:33:09.788Z,0.40
2019-04-27T05:35:40.981Z,0.37
2019-04-27T05:38:12.970Z,0.40
2019-04-27T05:40:39.919Z,0.40
2019-04-27T05:43:09.766Z,0.50
2019-04-27T05:46:04.241Z,0.50
2019-04-27T05:48:34.557Z,0.40
2019-04-27T05:51:03.254Z,0.40
2019-04-27T05:53:32.363Z,0.50
2019-04-27T05:56:01.043Z,0.42
2019-04-27T05:58:29.726Z,0.60
2019-04-27T06:00:59.476Z,0.60
2019-04-27T06:03:29.666Z,0.60
2019-04-27T06:05:59.344Z,0.75
2019-04-27T06:08:29.491Z,1.10
2019-04-27T06:10:59.334Z,0.50
2019-04-27T06:13:30.746Z,0.60
2019-04-27T06:15:59.247Z,0.75
2019-04-27T06:18:29.194Z,0.90
2019-04-27T06:20:59.650Z,0.68
2019-04-27T06:23:29.054Z,0.72
2019-04-27T06:25:57.940Z,0.85
2019-04-27T06:28:28.985Z,1.00
2019-04-27T06:30:59.356Z,0.80
2019-04-27T06:33:33.816Z,0.83
2019-04-27T06:35:59.452Z,0.57
2019-04-27T06:38:29.297Z,0.63
2019-04-27T06:40:59.038Z,0.60
2019-04-27T06:43:29.404Z,0.63
2019-04-27T06:45:58.715Z,0.73
2019-04-27T06:48:27.235Z,0.80
2019-04-27T06:51:02.621Z,0.60
2019-04-27T06:53:25.757Z,0.70
2019-04-27T06:55:54.175Z,0.67
2019-04-27T06:58:22.588Z,0.70
2019-04-27T07:00:51.027Z,0.60
2019-04-27T07:03:19.439Z,0.40
2019-04-27T07:05:48.699Z,0.40
2019-04-27T07:08:18.620Z,0.40
2019-04-27T07:10:49.004Z,0.50
2019-04-27T07:13:17.177Z,0.40
2019-04-27T07:15:45.619Z,0.37
2019-04-27T07:18:14.037Z,0.40
2019-04-27T07:20:42.442Z,0.40
2019-04-27T07:23:10.890Z,0.40
2019-04-27T07:25:39.297Z,0.30
2019-04-27T07:28:09.199Z,0.50
2019-04-27T07:30:38.788Z,0.40
2019-04-27T07:33:08.724Z,0.40
2019-04-27T07:35:39.171Z,0.40
2019-04-27T07:38:07.359Z,0.50
2019-04-27T07:40:36.043Z,0.40
2019-04-27T07:43:06.111Z,0.40
2019-04-27T07:45:39.595Z,0.30
2019-04-27T07:48:09.160Z,0.30
2019-04-27T07:50:39.002Z,0.30
2019-04-27T07:53:08.618Z,0.40
2019-04-27T07:55:37.117Z,0.40
2019-04-27T07:58:05.545Z,0.60
2019-04-27T08:00:33.979Z,0.40
2019-04-27T08:03:02.401Z,0.40
2019-04-27T08:05:30.814Z,0.30
2019-04-27T08:08:00.194Z,0.30
2019-04-27T08:10:29.215Z,0.47
2019-04-27T08:12:59.575Z,0.33
2019-04-27T08:15:29.077Z,0.37
2019-04-27T08:17:59.217Z,0.40
2019-04-27T08:20:29.418Z,0.40
2019-04-27T08:22:59.828Z,0.30
2019-04-27T08:25:28.742Z,0.40
2019-04-27T08:28:11.984Z,0.30
2019-04-27T08:30:58.548Z,0.50
2019-04-27T08:33:29.053Z,0.30
2019-04-27T08:35:59.090Z,0.33
2019-04-27T08:38:28.935Z,0.40
2019-04-27T08:40:59.109Z,0.40
2019-04-27T08:43:28.964Z,0.57
2019-04-27T08:46:00.127Z,0.40
2019-04-27T08:48:36.020Z,0.50
2019-04-27T08:50:59.302Z,0.40
2019-04-27T08:53:29.709Z,0.30
2019-04-27T08:55:59.187Z,0.40
2019-04-27T08:58:28.624Z,0.40
2019-04-27T09:00:59.044Z,0.50
2019-04-27T09:03:29.306Z,0.47
2019-04-27T09:05:59.040Z,0.43
2019-04-27T09:08:29.509Z,0.40
2019-04-27T09:10:59.603Z,0.40
2019-04-27T09:13:29.660Z,0.47
2019-04-27T09:16:00.092Z,0.50
2019-04-27T09:18:32.364Z,0.50
2019-04-27T09:21:02.037Z,0.40
2019-04-27T09:23:30.454Z,0.57
2019-04-27T09:25:59.433Z,0.33
2019-04-27T09:28:29.428Z,0.40
2019-04-27T09:30:58.661Z,0.37
2019-04-27T09:33:27.385Z,0.50
2019-04-27T09:35:56.747Z,1.13
2019-04-27T09:38:26.421Z,2.10
2019-04-27T09:40:55.884Z,1.40
2019-04-27T09:43:26.425Z,1.00
2019-04-27T09:45:55.753Z,1.10
2019-04-27T09:48:25.915Z,1.13
2019-04-27T09:50:55.975Z,1.30
2019-04-27T09:53:24.668Z,1.33
2019-04-27T09:55:53.123Z,0.90
2019-04-27T09:58:21.806Z,4.37
2019-04-27T10:00:50.222Z,3.63
2019-04-27T10:03:18.662Z,1.90
2019-04-27T10:05:47.081Z,1.13
2019-04-27T10:08:16.952Z,0.77
2019-04-27T10:10:45.983Z,4.97
2019-04-27T10:13:15.594Z,2.43
2019-04-27T10:15:45.831Z,1.30
2019-04-27T10:18:14.114Z,1.03
2019-04-27T10:20:42.537Z,1.10
2019-04-27T10:23:10.953Z,0.80
2019-04-27T10:25:39.411Z,0.60
2019-04-27T10:28:07.836Z,0.60
2019-04-27T10:30:36.251Z,0.70
2019-04-27T10:33:05.989Z,0.50
2019-04-27T10:35:36.363Z,0.40
2019-04-27T10:38:04.996Z,0.50
2019-04-27T10:40:33.434Z,0.40
2019-04-27T10:43:01.840Z,0.50
2019-04-27T10:45:30.266Z,0.40
2019-04-27T10:47:58.682Z,0.27
2019-04-27T10:50:27.104Z,0.40
2019-04-27T10:52:58.963Z,0.50
2019-04-27T10:55:26.205Z,0.87
2019-04-27T10:57:54.745Z,0.40
2019-04-27T11:00:25.653Z,0.30
2019-04-27T11:02:54.257Z,0.40
2019-04-27T11:05:25.676Z,0.40
2019-04-27T11:07:56.488Z,0.20
2019-04-27T11:10:26.043Z,0.33
2019-04-27T11:12:56.062Z,0.43
2019-04-27T11:15:26.402Z,0.50
2019-04-27T11:17:56.202Z,0.40
2019-04-27T11:20:27.529Z,0.20
2019-04-27T11:23:06.653Z,0.20
2019-04-27T11:25:26.348Z,0.40
2019-04-27T11:27:57.807Z,0.20
2019-04-27T11:30:26.370Z,0.40
2019-04-27T11:32:58.963Z,0.27
2019-04-27T11:35:32.814Z,0.30
2019-04-27T11:38:01.323Z,0.30
2019-04-27T11:40:29.730Z,0.40
2019-04-27T11:42:58.148Z,0.40
2019-04-27T11:45:28.475Z,0.40
2019-04-27T11:47:57.094Z,0.40
2019-04-27T11:50:25.709Z,0.30
2019-04-27T11:52:54.102Z,0.20
2019-04-27T11:55:22.522Z,0.37
2019-04-27T11:57:51.025Z,0.30
2019-04-27T12:00:22.562Z,0.30
2019-04-27T12:02:50.984Z,0.20
2019-04-27T12:05:19.402Z,0.30
2019-04-27T12:07:47.993Z,0.30
2019-04-27T12:10:17.068Z,0.27
2019-04-27T12:12:46.363Z,0.37
2019-04-27T12:15:16.065Z,0.77
2019-04-27T12:17:46.089Z,0.37
2019-04-27T12:20:17.542Z,0.27
2019-04-27T12:22:44.791Z,0.30
2019-04-27T12:25:13.753Z,0.30
2019-04-27T12:27:46.782Z,0.30
2019-04-27T12:30:22.629Z,0.20
2019-04-27T12:32:51.058Z,0.40
2019-04-27T12:35:19.471Z,0.30
2019-04-27T12:37:47.921Z,0.30
2019-04-27T12:40:16.696Z,0.30
2019-04-27T12:42:45.263Z,0.30
2019-04-27T12:45:14.088Z,0.27
2019-04-27T12:47:42.514Z,0.40
2019-04-27T12:50:11.004Z,0.30
2019-04-27T12:52:40.326Z,0.30
2019-04-27T12:55:25.765Z,0.27
2019-04-27T12:58:02.187Z,0.33
2019-04-27T13:00:38.550Z,0.30
2019-04-27T13:03:06.937Z,0.30
2019-04-27T13:05:35.874Z,0.30
2019-04-27T13:08:04.397Z,0.20
2019-04-27T13:10:32.816Z,0.40
2019-04-27T13:13:01.266Z,0.30
2019-04-27T13:15:29.766Z,0.20
2019-04-27T13:17:58.119Z,0.30
2019-04-27T13:20:26.662Z,0.30
2019-04-27T13:22:55.075Z,0.20
2019-04-27T13:25:23.491Z,0.40
2019-04-27T13:27:51.934Z,0.30
2019-04-27T13:30:20.355Z,0.20
2019-04-27T13:32:48.766Z,0.20
2019-04-27T13:35:17.222Z,0.20
2019-04-27T13:37:46.769Z,0.60
2019-04-27T13:40:17.042Z,0.33
2019-04-27T13:43:02.257Z,0.20
2019-04-27T13:45:33.372Z,0.30
2019-04-27T13:48:22.793Z,0.33
2019-04-27T13:50:56.527Z,0.30
2019-04-27T13:53:26.845Z,0.20
2019-04-27T13:55:56.760Z,0.20
2019-04-27T13:58:25.412Z,0.30
2019-04-27T14:00:54.236Z,0.30
2019-04-27T14:03:22.687Z,0.27
2019-04-27T14:05:52.555Z,0.20
2019-04-27T14:08:21.179Z,0.13
2019-04-27T14:10:51.330Z,0.40
2019-04-27T14:13:20.691Z,0.40
2019-04-27T14:15:49.159Z,0.30
2019-04-27T14:18:19.001Z,0.37
2019-04-27T14:20:48.710Z,0.30
2019-04-27T14:23:18.962Z,0.30
2019-04-27T14:25:47.402Z,0.40
2019-04-27T14:28:15.877Z,0.27
2019-04-27T14:30:44.357Z,0.20
2019-04-27T14:33:12.856Z,0.30
2019-04-27T14:35:41.282Z,0.40
2019-04-27T14:38:09.734Z,0.30
2019-04-27T14:40:39.247Z,0.27
2019-04-27T14:43:08.499Z,0.40
2019-04-27T14:45:39.546Z,0.30
2019-04-27T14:48:08.291Z,0.23
2019-04-27T14:50:40.244Z,0.20
2019-04-27T14:53:08.699Z,0.30
2019-04-27T14:55:38.654Z,0.30
2019-04-27T14:58:08.664Z,0.20
2019-04-27T15:00:38.497Z,0.20
2019-04-27T15:03:07.018Z,0.20
2019-04-27T15:05:35.434Z,0.40
2019-04-27T15:08:08.210Z,0.23
2019-04-27T15:10:36.141Z,0.30
2019-04-27T15:13:06.553Z,0.30
2019-04-27T15:15:34.257Z,0.20
2019-04-27T15:18:05.420Z,0.20
2019-04-27T15:20:41.652Z,0.20
2019-04-27T15:23:10.555Z,0.20
2019-04-27T15:25:44.952Z,0.30
2019-04-27T15:28:12.175Z,0.20
2019-04-27T15:30:59.562Z,0.20
2019-04-27T15:33:46.725Z,0.20
2019-04-27T15:36:20.953Z,0.20
2019-04-27T15:39:01.686Z,0.30
2019-04-27T15:41:31.792Z,0.20
2019-04-27T15:44:05.929Z,0.20
2019-04-27T15:46:33.773Z,0.20
2019-04-27T15:49:03.075Z,0.20
2019-04-27T15:51:32.113Z,0.20
2019-04-27T15:54:01.905Z,0.20
2019-04-27T15:56:35.294Z,0.20
2019-04-27T15:59:01.089Z,0.40
2019-04-27T16:01:35.617Z,0.20
2019-04-27T16:04:02.437Z,0.20
2019-04-27T16:06:29.778Z,0.30
2019-04-27T16:08:59.046Z,0.30
2019-04-27T16:11:27.567Z,0.20
2019-04-27T16:13:55.980Z,0.30
2019-04-27T16:16:28.452Z,0.30
2019-04-27T16:18:54.508Z,0.20
2019-04-27T16:21:22.986Z,0.27
2019-04-27T16:23:51.411Z,0.20
2019-04-27T16:26:19.872Z,0.20
2019-04-27T16:28:53.076Z,0.20
2019-04-27T16:31:20.352Z,0.20
2019-04-27T16:33:49.674Z,0.20
2019-04-27T16:36:19.769Z,0.20
2019-04-27T16:38:49.944Z,0.10
2019-04-27T16:41:18.567Z,0.20
2019-04-27T16:43:48.841Z,0.20
2019-04-27T16:46:19.043Z,0.27
2019-04-27T16:48:48.284Z,0.20
2019-04-27T16:51:18.355Z,0.20
2019-04-27T16:53:46.994Z,0.20
2019-04-27T16:56:18.332Z,0.20
2019-04-27T16:58:48.957Z,0.27
2019-04-27T17:01:19.938Z,0.20
2019-04-27T17:03:48.622Z,0.20
2019-04-27T17:06:19.085Z,0.50
2019-04-27T17:08:49.463Z,0.40
2019-04-27T17:11:19.505Z,0.50
2019-04-27T17:13:54.881Z,0.40
2019-04-27T17:16:39.921Z,0.40
2019-04-27T17:19:26.635Z,0.47
2019-04-27T17:21:55.058Z,0.50
2019-04-27T17:24:41.659Z,0.43
2019-04-27T17:27:04.153Z,0.60
2019-04-27T17:29:34.227Z,0.87
2019-04-27T17:32:03.056Z,0.60
2019-04-27T17:34:31.491Z,0.37
2019-04-27T17:36:59.906Z,0.70
2019-04-27T17:39:29.781Z,0.50
2019-04-27T17:41:58.564Z,0.50
2019-04-27T17:44:28.834Z,0.53
2019-04-27T17:46:57.401Z,0.50
2019-04-27T17:49:25.818Z,0.53
2019-04-27T17:51:54.243Z,0.50
2019-04-27T17:54:22.711Z,0.37
2019-04-27T17:56:52.423Z,0.43
2019-04-27T17:59:21.110Z,0.40
2019-04-27T18:01:53.654Z,0.40
2019-04-27T18:04:20.007Z,0.50
2019-04-27T18:06:48.540Z,0.40
2019-04-27T18:09:18.769Z,1.80
2019-04-27T18:11:48.605Z,2.67
2019-04-27T18:14:19.061Z,1.80
2019-04-27T18:16:48.225Z,1.40
2019-04-27T18:19:24.545Z,0.90
2019-04-27T18:22:01.160Z,0.70
2019-04-27T18:24:31.299Z,0.70
2019-04-27T18:27:04.253Z,0.40
2019-04-27T18:29:31.451Z,0.60
2019-04-27T18:31:59.872Z,0.30
2019-04-27T18:34:28.712Z,0.30
2019-04-27T18:36:57.249Z,0.30
2019-04-27T18:39:25.658Z,0.30
2019-04-27T18:41:54.464Z,0.30
2019-04-27T18:44:23.990Z,0.47
2019-04-27T18:46:53.743Z,0.40
2019-04-27T18:49:27.180Z,0.30
2019-04-27T18:52:06.472Z,0.30
2019-04-27T18:54:38.288Z,0.40
2019-04-27T18:57:05.655Z,0.30
2019-04-27T18:59:34.112Z,0.60
2019-04-27T19:02:02.531Z,0.53
2019-04-27T19:04:30.946Z,0.60
2019-04-27T19:07:00.126Z,0.50
2019-04-27T19:09:28.630Z,0.67
2019-04-27T19:11:57.051Z,0.50
2019-04-27T19:14:25.499Z,0.50
2019-04-27T19:16:53.914Z,0.57
2019-04-27T19:19:22.344Z,0.30
2019-04-27T19:21:50.794Z,0.30
2019-04-27T19:24:19.406Z,0.33
2019-04-27T19:26:52.564Z,0.40
2019-04-27T19:29:22.644Z,0.50
2019-04-27T19:31:58.883Z,0.50
2019-04-27T19:34:28.635Z,0.50
2019-04-27T19:36:59.084Z,0.50
2019-04-27T19:39:28.623Z,0.43
2019-04-27T19:42:01.412Z,0.60
2019-04-27T19:44:29.007Z,0.70
2019-04-27T19:46:57.523Z,0.50
2019-04-27T19:49:25.930Z,0.50
2019-04-27T19:51:54.396Z,0.50
2019-04-27T19:54:22.818Z,0.60
2019-04-27T19:56:51.236Z,0.50
2019-04-27T19:59:21.340Z,0.57
2019-04-27T20:01:51.411Z,0.50
2019-04-27T20:04:30.783Z,0.70
2019-04-27T20:06:59.375Z,0.50
2019-04-27T20:09:41.356Z,0.50
2019-04-27T20:12:10.410Z,0.53
2019-04-27T20:14:57.515Z,0.40
2019-04-27T20:17:27.125Z,0.60
2019-04-27T20:19:55.606Z,0.40
2019-04-27T20:22:24.406Z,0.40
2019-04-27T20:24:52.994Z,0.40
2019-04-27T20:27:21.410Z,0.40
2019-04-27T20:29:49.864Z,0.40
2019-04-27T20:32:18.291Z,0.37
2019-04-27T20:34:46.710Z,0.50
2019-04-27T20:37:15.160Z,0.63
2019-04-27T20:39:43.578Z,0.50
2019-04-27T20:42:12.544Z,0.33
2019-04-27T20:44:41.333Z,0.50
2019-04-27T20:47:10.564Z,0.50
2019-04-27T20:49:38.966Z,0.63
2019-04-27T20:52:11.630Z,0.57
2019-04-27T20:54:41.489Z,0.40
2019-04-27T20:57:11.565Z,0.53
2019-04-27T20:59:40.424Z,0.65
2019-04-27T21:02:27.242Z,0.45
2019-04-27T21:05:03.418Z,0.53
2019-04-27T21:07:52.814Z,0.40
2019-04-27T21:10:21.582Z,0.40
2019-04-27T21:12:51.815Z,0.40
2019-04-27T21:15:21.440Z,0.40
2019-04-27T21:17:51.202Z,0.33
2019-04-27T21:20:21.804Z,0.50
2019-04-27T21:22:53.230Z,0.55
2019-04-27T21:25:21.021Z,0.40
2019-04-27T21:27:51.359Z,0.45
2019-04-27T21:30:21.336Z,0.50
2019-04-27T21:32:50.874Z,0.50
2019-04-27T21:35:21.023Z,0.62
2019-04-27T21:37:51.201Z,0.68
2019-04-27T21:40:21.513Z,0.88
2019-04-27T21:42:51.130Z,0.70
2019-04-27T21:45:21.734Z,0.93
2019-04-27T21:47:51.940Z,1.10
2019-04-27T21:50:23.019Z,0.60
2019-04-27T21:53:04.878Z,0.80
2019-04-27T21:55:35.201Z,0.75
2019-04-27T21:58:03.893Z,0.60
2019-04-27T22:00:42.776Z,0.78
2019-04-27T22:03:13.074Z,0.80
2019-04-27T22:05:41.878Z,0.80
2019-04-27T22:08:11.733Z,0.80
2019-04-27T22:10:40.660Z,0.60
2019-04-27T22:13:09.353Z,0.70
2019-04-27T22:15:38.079Z,0.70
2019-04-27T22:18:06.767Z,0.68
2019-04-27T22:20:35.921Z,0.60
2019-04-27T22:23:06.446Z,0.40
2019-04-27T22:25:36.783Z,0.70
2019-04-27T22:28:05.460Z,0.50
2019-04-27T22:30:34.193Z,0.40
2019-04-27T22:33:02.878Z,0.50
2019-04-27T22:35:31.559Z,0.40
2019-04-27T22:38:01.968Z,0.50
2019-04-27T22:40:41.889Z,0.60
2019-04-27T22:43:28.549Z,0.50
2019-04-27T22:45:58.103Z,0.40
2019-04-27T22:48:26.795Z,0.40
2019-04-27T22:50:55.651Z,0.53
2019-04-27T22:53:24.334Z,0.35
2019-04-27T22:56:13.608Z,0.45
2019-04-27T22:58:56.978Z,0.40
2019-04-27T23:01:16.092Z,0.62
2019-04-27T23:03:46.447Z,0.60
2019-04-27T23:06:15.196Z,0.50
2019-04-27T23:08:43.884Z,0.70
2019-04-27T23:11:12.594Z,0.45
2019-04-27T23:13:41.283Z,0.53
2019-04-27T23:16:11.669Z,0.65
2019-04-27T23:18:41.368Z,0.42
2019-04-27T23:21:11.747Z,0.40
2019-04-27T23:23:41.350Z,0.40
2019-04-27T23:26:11.889Z,0.45
2019-04-27T23:28:41.373Z,0.50
2019-04-27T23:31:11.769Z,0.42
2019-04-27T23:33:42.234Z,0.33
2019-04-27T23:36:11.458Z,0.50
2019-04-27T23:38:40.861Z,0.30
2019-04-27T23:41:11.567Z,0.50
2019-04-27T23:43:39.953Z,0.45
2019-04-27T23:46:08.648Z,0.35
2019-04-27T23:48:37.372Z,0.50
2019-04-27T23:51:10.487Z,0.50
2019-04-27T23:53:41.688Z,0.42
2019-04-27T23:56:10.297Z,0.60
2019-04-27T23:58:38.989Z,0.40
